Chicago Midway International Airport
KMDW : now visible

Airfield :











YOU CAN JOIN US ON...

 
LOGIN :

Register | Disclaimer

   EN    FR    IT 

 









Legend :    VFR   Marginal VFR   IFR   Intensive IFR   Very Intensive IFR
Visi :
Ceiling :
>= 8 km
>= 3000ft
5 to 8 km
1000 to 3000 ft
1500m to 5 km
500 to 1000 ft
800 to 1500m
200 to 500 ft
< 800m
< 200 ft
Symbols :   Thunderstorms  Fog  Heavy snow  Heavy precipitations  Wind > 20 kt






- Airport Elevation : 620 ft
- IATA code : MDW


KMDW - Chicago Midway International

CURRENT METAR :
  • 200753Z 01008KT 10SM BKN016 BKN019 OVC070 07/03 A3021 RMK AO2 SLP236 T00670033 $

EXPIRED METARs :
  • 200733Z 01007KT 10SM BKN015 BKN019 OVC070 07/03 A3021 RMK AO2 T00670033 $
  • 200653Z 35010KT 9SM BKN014 OVC020 06/03 A3021 RMK AO2 SLP235 T00610033 $
  • 200622Z 35011KT 9SM SCT014 BKN020 OVC075 06/03 A3021 RMK AO2 T00610033 $
  • 200553Z 36006KT 8SM BKN014 OVC019 06/03 A3020 RMK AO2 SLP231 60000 T00610033 10061 20050 401110044 51003 $

TAF KMDW
Valid from the 20 at 06:00 until the 21 at 12:00 UTC


200530Z 2006/2112 36009KT P6SM OVC015
FM200900 01009KT P6SM SCT015 BKN020
FM201400 09011KT P6SM SCT020 BKN035
FM201900 11012G18KT P6SM BKN030
FM210000 12012KT 6SM -SHRA OVC015
FM210200 18010KT 4SM SHRA BR OVC007
FM210600 26012KT P6SM SCT009 BKN015
KZAU FIR / North America



MET'MAP, your aeronautical weather chart ! - Copyright ORBIFLY December 2007 - Disclaimer

ORBIFLY MET'MAP TEAM :

Programming & Development : Alexandra Zaïnal
Concept & original design : Baudouin d'Aumeries
Assistance for programming : Marc-Olivier Méhu
Technical & hardware support : Manuel Goepfert

Contact : metmap@orbifly.com




SOURCES & CREDITS :

   NOAA       Earth
Advisory